Time;durP1;ratioP1;P1;durP2;ratioP2;P2;SDS_P1;SDS_P2;PMS_P1;PMS_P2;Temp;Humidity;BMP_temperature;BMP_pressure;BME280_temperature;BME280_humidity;BME280_pressure;Samples;Min_cycle;Max_cycle;Signal;HPM_P1;HPM_P2
2023/07/27 00:01:16;;;;;;;2.28;1.35;;;;;;;14.73;75.01;95566.59;4917112;29;20679;-87
2023/07/27 00:03:42;;;;;;;1.77;1.67;;;;;;;14.76;74.92;95555.03;4936211;29;20873;-88
2023/07/27 00:06:09;;;;;;;1.50;1.40;;;;;;;14.74;74.70;95557.81;4918427;29;20237;-86
2023/07/27 00:08:35;;;;;;;1.83;1.55;;;;;;;14.77;73.95;95535.88;4917996;29;20213;-86
2023/07/27 00:11:18;;;;;;;1.50;1.40;;;;;;;14.79;73.97;95539.06;4922946;29;20281;-87
2023/07/27 00:13:44;;;;;;;1.95;1.45;;;;;;;14.78;74.67;95553.84;4939566;29;20706;-88
2023/07/27 00:16:11;;;;;;;1.65;1.50;;;;;;;14.72;75.19;95565.00;4941657;29;20225;-89
2023/07/27 00:18:37;;;;;;;1.65;1.50;;;;;;;14.70;75.47;95568.78;4940362;29;20308;-87
2023/07/27 00:21:04;;;;;;;1.87;1.67;;;;;;;14.75;75.82;95590.53;4941436;29;20221;-87
2023/07/27 00:23:30;;;;;;;2.35;1.50;;;;;;;14.65;77.15;95613.44;4941688;29;20205;-87
2023/07/27 00:25:57;;;;;;;2.20;1.45;;;;;;;14.65;76.92;95603.06;4941149;29;20237;-87
2023/07/27 00:28:24;;;;;;;4.35;1.55;;;;;;;14.58;77.36;95610.06;4940225;29;20212;-87
2023/07/27 00:31:00;;;;;;;1.88;1.67;;;;;;;14.57;77.66;95615.47;4940816;29;20225;-88
2023/07/27 00:33:26;;;;;;;1.77;1.67;;;;;;;14.59;77.68;95618.66;4940758;29;20189;-87
2023/07/27 00:35:57;;;;;;;2.60;1.55;;;;;;;14.56;78.13;95630.22;4938160;29;20581;-87
2023/07/27 00:38:23;;;;;;;1.50;1.40;;;;;;;14.48;79.25;95645.94;4940400;29;20205;-87
2023/07/27 00:40:50;;;;;;;1.67;1.58;;;;;;;14.46;79.44;95646.13;4940556;29;20229;-87
2023/07/27 00:43:16;;;;;;;1.75;1.60;;;;;;;14.45;79.73;95649.72;4940570;29;20205;-87
2023/07/27 00:45:44;;;;;;;2.15;1.45;;;;;;;14.41;80.00;95645.94;4940853;29;20742;-87
2023/07/27 00:48:11;;;;;;;1.65;1.55;;;;;;;14.42;78.90;95636.38;4940943;29;20206;-86
2023/07/27 00:50:37;;;;;;;2.57;1.90;;;;;;;14.45;78.22;95618.63;4939119;29;20221;-86
2023/07/27 00:53:06;;;;;;;2.40;1.97;;;;;;;14.49;77.86;95612.06;4940927;29;20213;-87
2023/07/27 00:55:33;;;;;;;1.67;1.58;;;;;;;14.49;78.28;95619.84;4941962;29;20228;-86
2023/07/27 00:58:00;;;;;;;2.43;1.40;;;;;;;14.52;77.84;95603.09;4941660;29;20217;-87
2023/07/27 01:00:29;;;;;;;2.03;1.83;;;;;;;14.56;77.73;95603.50;4930326;29;20665;-88
2023/07/27 01:02:57;;;;;;;2.13;1.70;;;;;;;14.53;77.69;95607.28;4923407;29;20212;-86
2023/07/27 01:05:23;;;;;;;3.10;1.63;;;;;;;14.50;77.82;95599.91;4929667;29;20229;-86
2023/07/27 01:07:53;;;;;;;2.07;1.87;;;;;;;14.51;77.21;95597.13;4936958;29;20237;-87
2023/07/27 01:10:24;;;;;;;1.60;1.50;;;;;;;14.39;78.73;95619.41;4922988;29;20236;-87
2023/07/27 01:13:05;;;;;;;1.90;1.70;;;;;;;14.39;78.31;95616.03;4920128;29;20206;-86
2023/07/27 01:15:37;;;;;;;2.25;1.77;;;;;;;14.41;78.13;95601.13;4949731;23;20653;-86
2023/07/27 01:18:11;;;;;;;2.53;1.52;;;;;;;14.40;78.02;95602.91;4949835;29;20737;-87
2023/07/27 01:20:42;;;;;;;1.77;1.60;;;;;;;14.35;79.28;95620.81;4959834;28;20213;-87
2023/07/27 01:23:53;;;;;;;1.58;1.48;;;;;;;14.29;79.42;95629.34;4959046;29;20207;-88
2023/07/27 01:26:47;;;;;;;2.50;1.50;;;;;;;14.31;78.92;95614.41;4882437;29;20275;-86
2023/07/27 01:29:29;;;;;;;1.50;1.40;;;;;;;14.35;78.97;95610.44;4941651;29;20209;-87
2023/07/27 01:31:57;;;;;;;3.20;1.53;;;;;;;14.44;78.07;95592.91;4942350;29;20201;-87
2023/07/27 01:34:27;;;;;;;1.48;1.38;;;;;;;14.42;78.17;95589.75;4941741;29;20218;-87
2023/07/27 01:36:57;;;;;;;2.80;1.58;;;;;;;14.39;78.17;95588.34;4941046;29;20213;-86
2023/07/27 01:39:26;;;;;;;1.70;1.60;;;;;;;14.37;78.01;95585.13;4939164;29;20193;-87
2023/07/27 01:41:54;;;;;;;1.92;1.58;;;;;;;14.38;77.73;95578.16;4941127;29;20213;-88
2023/07/27 01:44:23;;;;;;;2.15;1.67;;;;;;;14.38;78.42;95589.31;4940351;29;20209;-86
2023/07/27 01:46:51;;;;;;;1.98;1.33;;;;;;;14.38;78.39;95580.75;4941006;29;20284;-87
2023/07/27 01:49:20;;;;;;;1.73;1.63;;;;;;;14.42;77.77;95575.00;4941211;29;20217;-87
2023/07/27 01:51:48;;;;;;;1.80;1.50;;;;;;;14.40;77.92;95578.75;4940520;29;20232;-86
2023/07/27 01:54:15;;;;;;;1.50;1.40;;;;;;;14.42;78.55;95589.75;4939814;29;20214;-87
2023/07/27 01:56:43;;;;;;;1.70;1.60;;;;;;;14.38;78.38;95580.75;4940677;29;20603;-87
2023/07/27 01:59:11;;;;;;;1.53;1.43;;;;;;;14.42;78.54;95597.53;4941581;29;20201;-86
2023/07/27 02:01:42;;;;;;;1.50;1.40;;;;;;;14.38;77.90;95573.78;4941333;29;20205;-87
2023/07/27 02:04:12;;;;;;;1.67;1.58;;;;;;;14.42;77.76;95572.44;4941503;29;20221;-88
2023/07/27 02:06:40;;;;;;;2.97;1.80;;;;;;;14.45;78.03;95561.63;4941263;29;20225;-86
2023/07/27 02:09:06;;;;;;;1.40;1.30;;;;;;;14.46;77.27;95559.84;4941896;29;20225;-88
2023/07/27 02:11:33;;;;;;;1.52;1.42;;;;;;;14.34;77.85;95561.44;4940575;29;20236;-86
2023/07/27 02:14:05;;;;;;;1.83;1.50;;;;;;;14.27;78.16;95565.81;4941254;29;20229;-86
2023/07/27 02:16:41;;;;;;;1.50;1.40;;;;;;;14.28;78.44;95578.56;4941071;29;20234;-86
2023/07/27 02:19:09;;;;;;;1.65;1.55;;;;;;;14.32;78.27;95576.38;4940835;29;20215;-88
2023/07/27 02:21:36;;;;;;;1.57;1.33;;;;;;;14.29;78.53;95574.97;4941284;29;20229;-86
2023/07/27 02:24:07;;;;;;;1.60;1.42;;;;;;;14.31;77.72;95567.81;4941486;29;20206;-86
2023/07/27 02:26:34;;;;;;;1.65;1.55;;;;;;;14.33;77.97;95565.81;4940548;29;20206;-86
2023/07/27 02:29:01;;;;;;;2.45;2.00;;;;;;;14.37;77.82;95569.59;4941019;29;20212;-86
2023/07/27 02:31:27;;;;;;;2.53;1.83;;;;;;;14.36;77.60;95555.06;4941212;29;20404;-87
2023/07/27 02:33:54;;;;;;;1.50;1.40;;;;;;;14.38;77.53;95560.03;4940517;29;20216;-86
2023/07/27 02:36:20;;;;;;;3.37;1.80;;;;;;;14.41;77.48;95544.94;4941182;29;20232;-87
2023/07/27 02:38:47;;;;;;;1.47;1.37;;;;;;;14.39;78.03;95546.09;4940602;29;20294;-87
2023/07/27 02:41:14;;;;;;;1.67;1.57;;;;;;;14.40;77.23;95539.91;4941589;29;20205;-87
2023/07/27 02:43:41;;;;;;;1.60;1.50;;;;;;;14.31;77.65;95544.50;4938572;29;20224;-88
2023/07/27 02:46:08;;;;;;;1.60;1.50;;;;;;;14.30;77.88;95548.06;4941966;29;20256;-87
2023/07/27 02:48:34;;;;;;;1.50;1.40;;;;;;;14.22;77.86;95548.28;4941750;29;20209;-87
2023/07/27 02:51:01;;;;;;;1.83;1.40;;;;;;;14.26;77.64;95546.88;4942554;29;20221;-87
2023/07/27 02:53:27;;;;;;;5.60;1.60;;;;;;;14.29;77.25;95545.69;4936534;29;20272;-86
2023/07/27 02:56:01;;;;;;;1.93;1.33;;;;;;;14.32;76.72;95533.13;4943747;29;20221;-87
2023/07/27 02:58:32;;;;;;;1.50;1.40;;;;;;;14.34;76.63;95528.56;4940185;29;20194;-86
2023/07/27 03:01:03;;;;;;;1.50;1.40;;;;;;;14.34;76.46;95525.97;4941083;29;20205;-87
2023/07/27 03:03:32;;;;;;;3.30;1.70;;;;;;;14.35;76.68;95517.19;4932691;29;20241;-87
2023/07/27 03:05:59;;;;;;;1.50;1.40;;;;;;;14.31;76.22;95516.00;4943321;29;20241;-87
2023/07/27 03:08:29;;;;;;;1.70;1.60;;;;;;;14.25;75.97;95509.03;4944215;29;20221;-87
2023/07/27 03:11:00;;;;;;;1.70;1.60;;;;;;;14.26;75.73;95504.63;4943882;29;20234;-86
2023/07/27 03:13:27;;;;;;;1.70;1.60;;;;;;;14.21;75.27;95489.72;4943457;29;20205;-87
2023/07/27 03:15:55;;;;;;;2.72;1.60;;;;;;;14.09;76.22;95507.66;4940825;29;20313;-87
2023/07/27 03:18:21;;;;;;;2.25;1.40;;;;;;;14.13;75.85;95511.44;4934877;29;20269;-87
2023/07/27 03:20:48;;;;;;;2.92;1.50;;;;;;;14.10;75.30;95491.13;4943009;29;20217;-87
2023/07/27 03:23:15;;;;;;;1.73;1.50;;;;;;;14.10;74.38;95470.41;4943097;29;20434;-87
2023/07/27 03:25:41;;;;;;;1.50;1.40;;;;;;;14.04;73.80;95447.13;4942220;29;20240;-88
2023/07/27 03:28:09;;;;;;;1.50;1.40;;;;;;;14.03;73.00;95432.59;4942390;29;20205;-86
2023/07/27 03:30:38;;;;;;;2.23;1.70;;;;;;;14.05;73.33;95425.38;4942264;29;20244;-88
2023/07/27 03:33:06;;;;;;;1.70;1.60;;;;;;;14.01;73.78;95427.63;4941109;29;20206;-88
2023/07/27 03:35:33;;;;;;;3.67;1.70;;;;;;;13.96;73.24;95427.41;4941788;29;20221;-87
2023/07/27 03:38:00;;;;;;;2.13;1.83;;;;;;;13.93;73.41;95427.00;4941518;29;20212;-86
2023/07/27 03:40:27;;;;;;;2.33;1.73;;;;;;;13.92;73.48;95439.16;4942206;29;20217;-86
2023/07/27 03:42:53;;;;;;;1.70;1.60;;;;;;;13.97;73.59;95428.22;4941171;29;20240;-87
2023/07/27 03:45:20;;;;;;;1.57;1.47;;;;;;;13.90;73.58;95430.78;4947438;29;20224;-88
2023/07/27 03:47:47;;;;;;;1.50;1.40;;;;;;;13.91;73.52;95422.03;4941638;29;20205;-88
2023/07/27 03:50:18;;;;;;;2.10;1.67;;;;;;;13.94;73.74;95428.59;4947873;29;20209;-87
2023/07/27 03:52:45;;;;;;;2.00;1.80;;;;;;;13.92;73.64;95421.03;4948870;29;20295;-87
2023/07/27 03:55:11;;;;;;;2.20;1.60;;;;;;;13.82;74.11;95420.66;4949325;29;20217;-86
2023/07/27 03:57:38;;;;;;;1.67;1.57;;;;;;;13.83;74.18;95433.41;4935002;29;20220;-87
2023/07/27 04:00:06;;;;;;;1.83;1.50;;;;;;;13.85;74.30;95428.03;4934014;29;20240;-86
2023/07/27 04:02:33;;;;;;;1.73;1.63;;;;;;;13.87;74.36;95435.56;4929401;29;20599;-87
2023/07/27 04:04:59;;;;;;;5.90;1.90;;;;;;;13.84;74.02;95423.84;4941172;29;20263;-87
2023/07/27 04:07:27;;;;;;;2.57;1.73;;;;;;;13.89;74.38;95426.63;4948740;29;20217;-88
2023/07/27 04:09:53;;;;;;;2.67;1.50;;;;;;;13.96;73.84;95427.41;4947497;29;20205;-86
2023/07/27 04:12:21;;;;;;;1.60;1.50;;;;;;;13.92;74.57;95431.41;4947623;29;20217;-87
2023/07/27 04:14:51;;;;;;;2.03;1.70;;;;;;;13.93;75.12;95455.47;4947773;29;20236;-86
2023/07/27 04:17:18;;;;;;;2.53;1.57;;;;;;;13.99;74.47;95434.78;4946619;29;20220;-87
2023/07/27 04:19:51;;;;;;;2.00;1.80;;;;;;;13.94;75.04;95444.13;4947168;29;20212;-87
2023/07/27 04:22:17;;;;;;;1.70;1.60;;;;;;;13.94;75.31;95452.69;4948576;29;20201;-87
2023/07/27 04:24:45;;;;;;;1.90;1.70;;;;;;;13.97;74.59;95431.59;4947639;29;20453;-86
2023/07/27 04:27:14;;;;;;;2.40;1.80;;;;;;;13.99;73.98;95421.03;4947789;29;20193;-86
2023/07/27 04:29:40;;;;;;;2.03;1.63;;;;;;;14.03;74.07;95427.41;4947340;29;20201;-87
2023/07/27 04:32:10;;;;;;;2.00;1.80;;;;;;;14.06;74.35;95434.75;4949020;29;20221;-88
2023/07/27 04:34:39;;;;;;;2.33;1.40;;;;;;;14.08;73.95;95412.06;4948291;29;20286;-87
2023/07/27 04:37:06;;;;;;;2.07;1.87;;;;;;;14.18;73.50;95415.03;4946688;29;20197;-86
2023/07/27 04:39:35;;;;;;;1.93;1.80;;;;;;;14.27;72.77;95387.91;4948197;29;20202;-86
2023/07/27 04:42:04;;;;;;;3.73;2.20;;;;;;;14.36;72.11;95367.78;4948165;29;20206;-86
2023/07/27 04:44:31;;;;;;;3.93;3.53;;;;;;;14.37;72.33;95372.75;4946514;29;20201;-87
2023/07/27 04:46:58;;;;;;;4.43;4.03;;;;;;;14.40;71.73;95362.00;4943792;29;20212;-84
2023/07/27 04:49:24;;;;;;;5.73;5.20;;;;;;;14.44;71.37;95352.00;4947314;29;20237;-85
2023/07/27 04:51:51;;;;;;;4.03;2.27;;;;;;;14.46;71.28;95353.41;4944898;29;20217;-85
2023/07/27 04:54:17;;;;;;;1.90;1.70;;;;;;;14.44;70.71;95336.47;4942024;29;20209;-86
2023/07/27 04:56:43;;;;;;;1.90;1.73;;;;;;;14.40;70.50;95333.53;4911540;29;20233;-84
2023/07/27 04:59:11;;;;;;;2.13;1.70;;;;;;;14.35;70.91;95342.88;4932879;29;20202;-85
2023/07/27 05:01:38;;;;;;;2.57;1.70;;;;;;;14.35;70.83;95330.72;4936918;29;20576;-84
2023/07/27 05:04:04;;;;;;;1.80;1.70;;;;;;;14.36;70.86;95340.06;4940098;29;20209;-85
2023/07/27 05:06:31;;;;;;;2.67;1.70;;;;;;;14.46;70.82;95337.84;4937067;29;20233;-85
2023/07/27 05:08:57;;;;;;;2.17;1.93;;;;;;;14.61;70.66;95342.00;4939311;29;20213;-85
2023/07/27 05:11:24;;;;;;;2.10;1.90;;;;;;;14.60;72.05;95376.69;4937474;29;20222;-87
2023/07/27 05:13:51;;;;;;;1.90;1.80;;;;;;;14.64;71.17;95355.31;4940597;29;20200;-86
2023/07/27 05:16:18;;;;;;;2.63;1.80;;;;;;;14.64;70.85;95334.56;4936037;29;20229;-85
2023/07/27 05:18:45;;;;;;;3.55;1.60;;;;;;;14.70;70.74;95328.56;4939532;29;20759;-85
2023/07/27 05:21:11;;;;;;;11.52;8.32;;;;;;;14.79;71.06;95342.09;4940106;29;20197;-85
2023/07/27 05:23:38;;;;;;;3.03;2.60;;;;;;;14.95;70.38;95320.84;4939457;29;20197;-85
2023/07/27 05:26:05;;;;;;;1.67;1.50;;;;;;;15.06;69.18;95285.66;4938797;29;20229;-85
2023/07/27 05:28:32;;;;;;;1.73;1.63;;;;;;;15.16;69.54;95294.56;4939271;29;20202;-84
2023/07/27 05:30:58;;;;;;;1.70;1.60;;;;;;;15.30;69.68;95295.25;4937353;29;20194;-84
2023/07/27 05:33:26;;;;;;;1.80;1.70;;;;;;;15.39;69.09;95288.00;4936165;29;20201;-86
2023/07/27 05:35:52;;;;;;;2.60;2.03;;;;;;;15.45;68.95;95272.34;4936618;29;20234;-85
2023/07/27 05:38:19;;;;;;;2.08;1.60;;;;;;;15.43;68.45;95258.00;4936373;29;20201;-86
2023/07/27 05:40:45;;;;;;;1.83;1.73;;;;;;;15.54;68.35;95245.13;4930180;29;20336;-83
2023/07/27 05:43:14;;;;;;;1.90;1.70;;;;;;;15.55;66.99;95204.41;4935630;29;20613;-85
2023/07/27 05:45:40;;;;;;;1.80;1.70;;;;;;;15.63;67.65;95235.28;4937340;29;20222;-84
2023/07/27 05:48:07;;;;;;;1.65;1.55;;;;;;;15.71;67.07;95218.63;4937723;29;20209;-85
2023/07/27 05:50:35;;;;;;;2.67;1.65;;;;;;;15.71;67.33;95229.81;4937267;29;20209;-85
2023/07/27 05:53:01;;;;;;;1.80;1.58;;;;;;;15.71;67.57;95229.81;4936420;29;20221;-84
2023/07/27 05:55:28;;;;;;;1.75;1.60;;;;;;;15.78;67.63;95234.91;4936820;29;20221;-84
2023/07/27 05:57:54;;;;;;;1.73;1.50;;;;;;;15.84;67.58;95234.06;4936137;29;20218;-85
2023/07/27 06:00:21;;;;;;;1.70;1.60;;;;;;;15.94;68.14;95249.91;4936377;29;20197;-85
2023/07/27 06:02:47;;;;;;;1.60;1.50;;;;;;;15.96;67.29;95229.72;4934614;29;20200;-84
2023/07/27 06:05:14;;;;;;;2.22;1.90;;;;;;;15.97;66.82;95215.72;4937257;29;20236;-84
2023/07/27 06:07:42;;;;;;;1.80;1.70;;;;;;;16.06;68.00;95253.38;4940501;29;20194;-84
2023/07/27 06:10:09;;;;;;;3.70;1.92;;;;;;;16.42;71.67;95372.03;4931905;29;20202;-82
2023/07/27 06:12:35;;;;;;;2.38;1.77;;;;;;;16.86;70.01;95338.94;4938786;29;20233;-85
2023/07/27 06:15:02;;;;;;;4.28;2.10;;;;;;;17.16;67.85;95272.03;4939374;29;20240;-84
2023/07/27 06:17:29;;;;;;;1.50;1.40;;;;;;;17.20;65.47;95178.72;4943627;29;20202;-84
2023/07/27 06:19:55;;;;;;;2.60;1.90;;;;;;;17.06;64.29;95133.94;4939831;29;20201;-85
2023/07/27 06:22:21;;;;;;;2.83;2.42;;;;;;;16.87;65.40;95166.28;4942573;29;20208;-83
2023/07/27 06:24:49;;;;;;;3.63;1.95;;;;;;;16.83;66.20;95199.75;4945499;29;20221;-84
2023/07/27 06:27:18;;;;;;;2.45;1.95;;;;;;;16.75;65.82;95183.66;4940541;29;20205;-85
2023/07/27 06:29:48;;;;;;;2.70;1.67;;;;;;;16.78;66.60;95212.63;4938628;29;20200;-85
2023/07/27 06:32:32;;;;;;;4.35;1.98;;;;;;;16.80;66.56;95212.38;4939473;29;20221;-85
2023/07/27 06:34:59;;;;;;;1.98;1.88;;;;;;;16.74;64.86;95158.72;4937047;29;20281;-85
2023/07/27 06:37:25;;;;;;;1.85;1.67;;;;;;;16.67;65.04;95151.00;4938803;29;20208;-86
2023/07/27 06:39:54;;;;;;;1.80;1.70;;;;;;;16.60;64.58;95139.88;4939655;29;20201;-85
2023/07/27 06:42:20;;;;;;;1.70;1.60;;;;;;;16.55;64.70;95131.97;4939315;29;20201;-86
2023/07/27 06:44:47;;;;;;;3.78;1.60;;;;;;;16.56;65.25;95152.53;4936485;29;20214;-85
2023/07/27 06:47:13;;;;;;;2.67;2.05;;;;;;;16.54;64.19;95113.00;4939633;29;20214;-86
2023/07/27 06:49:42;;;;;;;3.22;1.70;;;;;;;16.61;65.09;95149.25;4938282;29;20197;-87
2023/07/27 06:52:09;;;;;;;1.95;1.77;;;;;;;16.61;64.42;95112.88;4936582;29;20225;-86
2023/07/27 06:54:45;;;;;;;2.22;1.60;;;;;;;16.68;64.88;95123.22;4941935;29;20229;-86
2023/07/27 06:57:15;;;;;;;1.70;1.60;;;;;;;16.76;63.27;95063.06;4939943;29;20213;-86
2023/07/27 06:59:42;;;;;;;1.90;1.80;;;;;;;16.86;63.80;95092.69;4939984;29;20289;-86
2023/07/27 07:02:15;;;;;;;2.08;1.65;;;;;;;17.02;63.37;95082.59;4940819;29;20209;-86
2023/07/27 07:04:41;;;;;;;2.00;1.80;;;;;;;17.06;62.76;95061.09;4943977;29;20312;-85
2023/07/27 07:07:08;;;;;;;1.70;1.60;;;;;;;17.11;62.72;95058.63;4937571;29;20281;-86
2023/07/27 07:09:35;;;;;;;3.90;1.80;;;;;;;17.23;62.36;95041.16;4941281;29;20205;-84
2023/07/27 07:12:02;;;;;;;2.67;1.80;;;;;;;17.32;61.50;95007.75;4942190;29;20738;-85
2023/07/27 07:14:30;;;;;;;2.28;1.70;;;;;;;17.45;61.29;94997.06;4941100;29;20206;-85
2023/07/27 07:17:11;;;;;;;2.20;1.65;;;;;;;17.59;62.44;95029.59;4938851;29;20209;-86
2023/07/27 07:19:37;;;;;;;2.13;1.80;;;;;;;17.73;61.64;95019.69;4940795;29;20201;-85
2023/07/27 07:28:34;;;;;;;2.88;1.70;;;;;;;17.88;59.29;94908.00;4804473;29;20929;-84
2023/07/27 07:31:47;;;;;;;2.10;1.80;;;;;;;17.86;59.16;94896.22;4825944;29;21058;-85
2023/07/27 07:34:44;;;;;;;1.88;1.75;;;;;;;17.94;59.86;94917.44;4897143;29;20343;-84
2023/07/27 07:37:38;;;;;;;2.60;2.10;;;;;;;18.02;58.91;94881.59;4880477;29;20211;-85
2023/07/27 07:40:37;;;;;;;3.72;1.60;;;;;;;18.06;58.58;94854.03;4862529;29;20208;-84
2023/07/27 07:43:33;;;;;;;1.85;1.65;;;;;;;18.02;58.06;94838.09;4882478;29;20545;-84
2023/07/27 07:46:29;;;;;;;2.67;1.80;;;;;;;18.10;57.70;94805.63;4879621;29;20259;-85
2023/07/27 07:48:58;;;;;;;1.70;1.60;;;;;;;18.22;58.06;94804.50;4942238;29;20193;-85
2023/07/27 07:51:59;;;;;;;;;;;;;;;;;;;;;
2023/07/27 07:54:43;;;;;;;2.53;1.70;;;;;;;18.56;57.35;94805.13;4943626;29;20291;-86
2023/07/27 08:00:21;;;;;;;;;;;;;;;;;;;;;
2023/07/27 08:02:50;;;;;;;1.67;1.58;;;;;;;18.82;56.62;94766.28;4943262;29;20190;-85
2023/07/27 08:05:17;;;;;;;1.70;1.60;;;;;;;18.93;55.84;94711.34;4941101;29;20257;-85
2023/07/27 08:07:45;;;;;;;1.65;1.50;;;;;;;19.15;55.77;94716.44;4940989;29;20201;-86
2023/07/27 08:10:15;;;;;;;2.65;1.98;;;;;;;19.29;55.34;94701.13;4941063;29;20204;-86
2023/07/27 08:12:41;;;;;;;2.65;1.80;;;;;;;19.32;54.48;94638.78;4939719;29;20229;-84
2023/07/27 08:15:08;;;;;;;3.55;1.80;;;;;;;19.54;55.15;94677.03;4940804;29;20244;-86
2023/07/27 08:17:35;;;;;;;2.03;1.90;;;;;;;19.73;54.06;94615.47;4939264;29;20220;-84
2023/07/27 08:20:12;;;;;;;2.20;2.00;;;;;;;19.84;53.75;94624.09;4938611;29;20652;-85
2023/07/27 08:22:52;;;;;;;2.33;1.80;;;;;;;19.87;52.35;94534.78;4939610;29;20190;-84
2023/07/27 08:25:18;;;;;;;1.50;1.40;;;;;;;19.89;51.38;94485.66;4938118;29;20312;-86
2023/07/27 08:27:58;;;;;;;2.00;1.80;;;;;;;19.94;51.81;94496.91;4935703;29;20249;-85
2023/07/27 08:30:24;;;;;;;1.88;1.70;;;;;;;19.89;51.84;94507.34;4935821;29;20213;-84
2023/07/27 08:32:54;;;;;;;2.30;1.67;;;;;;;19.89;50.12;94426.38;4941906;29;20767;-85
2023/07/27 08:35:26;;;;;;;1.80;1.70;;;;;;;19.89;49.74;94381.94;4943414;29;20755;-86
2023/07/27 08:37:57;;;;;;;2.00;1.80;;;;;;;19.94;50.20;94415.91;4943028;29;20286;-84
2023/07/27 08:40:24;;;;;;;3.45;1.88;;;;;;;19.98;50.32;94406.50;4943922;29;20198;-84
2023/07/27 08:42:50;;;;;;;1.60;1.50;;;;;;;20.07;50.60;94421.63;4942911;29;20194;-85
2023/07/27 08:45:21;;;;;;;1.80;1.70;;;;;;;20.14;50.53;94430.78;4942550;29;20225;-85
2023/07/27 08:47:48;;;;;;;1.95;1.80;;;;;;;20.22;51.26;94481.72;4942471;29;20205;-86
2023/07/27 08:50:16;;;;;;;3.90;1.88;;;;;;;20.31;50.47;94456.63;4942716;29;20209;-87
2023/07/27 08:52:48;;;;;;;1.98;1.83;;;;;;;20.30;50.10;94410.63;4942097;29;20209;-85
2023/07/27 08:55:16;;;;;;;2.78;1.83;;;;;;;20.33;50.28;94418.72;4942012;29;20229;-84
2023/07/27 08:57:43;;;;;;;1.92;1.80;;;;;;;20.25;49.80;94387.09;4942566;29;20198;-83
2023/07/27 09:00:16;;;;;;;2.75;1.58;;;;;;;20.29;49.92;94388.94;4940326;29;20205;-84
2023/07/27 09:02:45;;;;;;;1.77;1.67;;;;;;;20.22;47.37;94254.31;4941463;29;20240;-84
2023/07/27 09:05:38;;;;;;;1.70;1.60;;;;;;;20.26;47.45;94248.31;4942263;29;20289;-85
2023/07/27 09:08:07;;;;;;;2.10;1.70;;;;;;;20.40;48.80;94320.97;4942090;29;20205;-84
2023/07/27 09:10:45;;;;;;;1.80;1.55;;;;;;;20.49;48.60;94329.78;4933822;29;20213;-87
2023/07/27 09:13:12;;;;;;;1.55;1.45;;;;;;;20.48;49.44;94359.59;4940798;29;20217;-84
2023/07/27 09:15:43;;;;;;;1.85;1.73;;;;;;;20.48;48.30;94283.78;4932229;29;20223;-84
2023/07/27 09:18:11;;;;;;;1.90;1.70;;;;;;;20.48;46.86;94210.56;4939317;29;20206;-83
2023/07/27 09:20:39;;;;;;;1.80;1.70;;;;;;;20.50;46.29;94198.00;4941295;29;20206;-84
2023/07/27 09:23:06;;;;;;;1.60;1.50;;;;;;;20.43;45.94;94181.84;4940637;29;20596;-85
2023/07/27 09:25:33;;;;;;;2.13;1.90;;;;;;;20.32;46.06;94168.81;4938817;29;20248;-85
2023/07/27 09:28:03;;;;;;;1.90;1.60;;;;;;;20.39;47.32;94249.59;4939481;29;20194;-85
2023/07/27 09:30:34;;;;;;;2.20;1.67;;;;;;;20.47;47.49;94246.38;4938188;29;20202;-85
2023/07/27 09:33:16;;;;;;;1.75;1.65;;;;;;;20.48;46.51;94200.88;4936168;29;20218;-85
2023/07/27 09:35:49;;;;;;;1.98;1.80;;;;;;;20.42;45.02;94114.91;4937205;29;20316;-85
2023/07/27 09:38:16;;;;;;;1.95;1.80;;;;;;;20.45;45.77;94138.69;4937974;29;20213;-85
2023/07/27 09:40:49;;;;;;;2.63;1.80;;;;;;;20.47;46.15;94175.78;4938219;29;20201;-84
2023/07/27 09:43:18;;;;;;;2.05;1.83;;;;;;;20.45;46.76;94203.25;4935862;29;20202;-85
2023/07/27 09:45:51;;;;;;;1.70;1.60;;;;;;;20.54;46.94;94212.88;4938979;29;20225;-84
2023/07/27 09:48:18;;;;;;;1.83;1.73;;;;;;;20.56;46.24;94170.78;4939207;29;20185;-84
2023/07/27 09:50:44;;;;;;;2.42;1.65;;;;;;;20.52;46.38;94156.69;4937205;29;20201;-85
2023/07/27 09:53:13;;;;;;;1.98;1.83;;;;;;;20.49;46.97;94199.06;4938016;29;20218;-85
2023/07/27 09:55:40;;;;;;;2.10;1.90;;;;;;;20.51;46.94;94223.09;4939239;29;20314;-85
2023/07/27 09:58:09;;;;;;;4.75;1.77;;;;;;;20.55;46.86;94200.59;4934438;29;20193;-84
2023/07/27 10:00:53;;;;;;;2.08;1.88;;;;;;;20.61;46.63;94194.25;4937748;29;20201;-86
2023/07/27 10:03:20;;;;;;;1.88;1.77;;;;;;;20.78;46.42;94176.38;4939150;29;20193;-85
2023/07/27 10:05:48;;;;;;;2.15;1.70;;;;;;;20.94;46.87;94192.72;4936212;29;20226;-84
2023/07/27 10:08:29;;;;;;;2.53;1.65;;;;;;;20.99;46.68;94197.88;4937027;29;20705;-84
2023/07/27 10:11:00;;;;;;;2.95;1.90;;;;;;;21.06;47.62;94245.47;4936975;29;20210;-84
2023/07/27 10:13:37;;;;;;;1.92;1.73;;;;;;;20.85;45.80;94137.56;4936227;29;20224;-83
2023/07/27 10:16:08;;;;;;;1.83;1.73;;;;;;;20.81;45.45;94107.00;4936576;29;20307;-84
2023/07/27 10:18:40;;;;;;;1.95;1.70;;;;;;;20.74;43.77;94020.25;4937493;29;20260;-84
2023/07/27 10:21:27;;;;;;;2.15;1.70;;;;;;;20.79;45.35;94083.72;4933099;29;20792;-83
2023/07/27 10:23:56;;;;;;;1.98;1.67;;;;;;;20.82;45.66;94119.00;4933843;29;20201;-84
2023/07/27 10:26:46;;;;;;;2.38;1.70;;;;;;;20.78;45.17;94087.41;4939480;29;20241;-84
2023/07/27 10:29:17;;;;;;;1.80;1.63;;;;;;;20.82;46.05;94138.13;4937672;29;20205;-83
2023/07/27 10:31:46;;;;;;;1.77;1.65;;;;;;;20.88;45.51;94103.00;4937455;29;20225;-84
2023/07/27 10:34:14;;;;;;;1.95;1.67;;;;;;;20.92;44.58;94054.31;4926935;29;20329;-85
2023/07/27 10:36:57;;;;;;;1.63;1.50;;;;;;;21.00;44.67;94045.84;4936937;29;20218;-83
2023/07/27 10:39:26;;;;;;;1.77;1.67;;;;;;;21.10;45.84;94109.59;4936630;29;20587;-84
2023/07/27 10:42:01;;;;;;;1.98;1.77;;;;;;;21.17;45.97;94120.50;4937449;29;20288;-83
2023/07/27 10:44:28;;;;;;;2.05;1.85;;;;;;;21.22;44.83;94068.91;4935498;29;20674;-83
2023/07/27 10:46:58;;;;;;;1.73;1.63;;;;;;;21.14;42.99;93956.97;4937364;29;20206;-83
2023/07/27 10:49:27;;;;;;;2.03;1.70;;;;;;;21.29;44.04;94008.38;4937803;29;20205;-83
2023/07/27 10:51:54;;;;;;;1.70;1.60;;;;;;;21.39;43.28;93971.56;4938171;29;20231;-83
2023/07/27 10:54:21;;;;;;;1.60;1.40;;;;;;;21.37;42.57;93916.84;4935635;29;20738;-83
2023/07/27 10:56:49;;;;;;;1.83;1.63;;;;;;;21.42;42.92;93941.41;4937675;29;20291;-82
2023/07/27 10:59:16;;;;;;;2.33;1.70;;;;;;;21.34;41.67;93882.63;4938259;29;20197;-83
2023/07/27 11:01:42;;;;;;;2.05;1.85;;;;;;;21.38;42.67;93935.97;4937893;29;20205;-82
2023/07/27 11:04:11;;;;;;;2.00;1.75;;;;;;;21.36;43.08;93965.06;4939536;29;20201;-83
2023/07/27 11:06:47;;;;;;;1.70;1.60;;;;;;;21.32;43.71;93992.88;4940244;29;20297;-83
2023/07/27 11:09:15;;;;;;;2.03;1.85;;;;;;;21.36;43.17;93988.63;4939039;29;20594;-83
2023/07/27 11:11:52;;;;;;;;;;;;;;;;;;;;;
2023/07/27 11:14:19;;;;;;;2.45;1.77;;;;;;;21.46;43.84;94015.75;4940021;29;20220;-84
2023/07/27 11:19:43;;;;;;;1.90;1.80;;;;;;;21.72;43.16;93977.66;4939539;29;20244;-83
2023/07/27 11:22:17;;;;;;;1.80;1.70;;;;;;;21.73;43.64;93996.78;4936604;29;20202;-83
2023/07/27 11:24:48;;;;;;;2.10;1.90;;;;;;;21.73;43.84;94021.13;4943409;29;20240;-85
2023/07/27 11:27:17;;;;;;;1.92;1.70;;;;;;;21.63;43.58;93988.00;4942169;29;20224;-83
2023/07/27 11:29:46;;;;;;;1.63;1.52;;;;;;;21.65;43.86;93982.47;4940331;29;20216;-83
2023/07/27 11:32:22;;;;;;;;;;;;;;;;;;;;;
2023/07/27 11:35:21;;;;;;;3.47;1.98;;;;;;;21.52;44.41;94012.78;4938594;29;20281;-82
2023/07/27 11:37:49;;;;;;;2.20;1.80;;;;;;;21.45;44.00;94004.47;4937262;29;20197;-82
2023/07/27 11:40:21;;;;;;;1.60;1.50;;;;;;;21.33;44.57;94023.25;4942605;29;20217;-83
2023/07/27 11:42:47;;;;;;;2.17;1.98;;;;;;;21.27;44.71;94034.81;4940491;29;20272;-82
2023/07/27 11:45:20;;;;;;;1.92;1.77;;;;;;;21.22;45.26;94062.91;4941533;29;20225;-84
2023/07/27 11:47:47;;;;;;;3.90;1.95;;;;;;;21.23;45.72;94099.25;4941584;29;20602;-84
2023/07/27 11:50:17;;;;;;;2.03;1.70;;;;;;;21.25;46.43;94120.72;4941050;29;20201;-84
2023/07/27 11:52:43;;;;;;;3.13;1.95;;;;;;;21.22;45.85;94116.03;4940335;29;20197;-84
2023/07/27 11:55:19;;;;;;;1.85;1.70;;;;;;;21.31;46.20;94134.53;4940192;29;20229;-83
2023/07/27 11:57:53;;;;;;;2.13;1.80;;;;;;;21.34;46.34;94142.63;4938752;29;20197;-82
2023/07/27 12:00:21;;;;;;;2.03;1.65;;;;;;;21.30;46.11;94104.19;4937349;29;20216;-83
2023/07/27 12:02:50;;;;;;;1.85;1.60;;;;;;;21.24;46.44;94118.38;4936428;29;20205;-82
2023/07/27 12:05:19;;;;;;;2.33;1.90;;;;;;;21.20;46.33;94127.84;4938362;29;20779;-82